Etusivu
METAR-TAF:

METAR-TAF

Lentoasemat :

Entrammes

Laval, Ranska

Leveyspiiri: 48-01-56N, Pituuspiiri: 000-44-34W, korkeus merenpinnasta: 101 m

Tämänhetkinen sää

Tämä raportti tehtiin 28 minuuttia sitten, kello 19.00 UTC
Tuuli 6 kn lännestä/lounaasta
Lämpötila 5°C
Kosteus 87%
Ilmanpaine 1005 hPa
Näkyvyys 10 km tai enemmän
Muutamia pilviä 4000 ft:n korkeudessa

METAR: LFOV 121900Z AUTO 24006KT 9999 FEW040 05/03 Q1005

Aika: 20:28 (19:28 UTC)


TAF: puuttuu

Säähavainnot ja -ennusteet yli 4000 lentoasemalta (METAR- ja TAF-raportit).

Käytössä olevat sääasemat on merkitty karttaan keltaisilla ja punaisilla pisteillä.

Aseta hiiri pisteen päälle nähdäksesi sääaseman nimen.

Klikkaa sitten nähdäksesi säähavainnot ja -ennusteet.

Kartan vaihtaminen: klikkaa mustalla rastilla varustettuja vihreitä pisteitä, niin voit zoomata sisään; viivalla varustettua vihreää pistettä, niin voit zoomata ulos tai vihreitä nuolia, niin pääset viereisille kartoille.


METAR-TAF: